Time;durP1;ratioP1;P1;durP2;ratioP2;P2;SDS_P1;SDS_P2;PMS_P1;PMS_P2;Temp;Humidity;BMP_temperature;BMP_pressure;BME280_temperature;BME280_humidity;BME280_pressure;Samples;Min_cycle;Max_cycle;Signal;HPM_P1;HPM_P2
2022/01/27 00:03:08;;;;;;;;;;;4.20;99.90;;;4.03;81.23;102398.13;5204660;28;20049;-72
2022/01/27 00:05:46;;;;;;;19.38;7.30;;;4.20;99.90;;;4.05;80.97;102400.88;5224752;28;19920;-71
2022/01/27 00:08:25;;;;;;;22.17;7.60;;;4.30;99.90;;;4.04;81.14;102399.97;5225022;28;20053;-74
2022/01/27 00:10:59;;;;;;;19.33;6.57;;;4.30;99.90;;;4.08;80.91;102401.13;5230550;28;20060;-74
2022/01/27 00:13:33;;;;;;;19.13;7.10;;;4.30;99.90;;;4.07;80.40;102407.06;5236315;28;20045;-73
2022/01/27 00:16:14;;;;;;;18.70;6.75;;;4.30;99.90;;;4.05;80.61;102406.94;5227763;28;20123;-74
2022/01/27 00:18:48;;;;;;;18.38;5.38;;;4.20;99.90;;;4.07;80.58;102410.56;5244836;28;20429;-72
2022/01/27 00:21:22;;;;;;;20.75;7.93;;;4.20;99.90;;;4.06;80.81;102418.16;5224681;28;20489;-73
2022/01/27 00:23:56;;;;;;;16.70;6.22;;;4.20;99.90;;;4.07;80.68;102415.72;5225134;28;20057;-74
2022/01/27 00:26:28;;;;;;;20.48;7.50;;;4.30;99.90;;;4.07;80.68;102436.38;5224889;28;20477;-73
2022/01/27 00:29:00;;;;;;;28.02;8.90;;;4.30;99.90;;;4.05;80.78;102426.69;5227721;28;20136;-71
2022/01/27 00:31:32;;;;;;;31.05;10.25;;;4.20;99.90;;;3.95;81.20;102422.38;5229008;28;20049;-71
2022/01/27 00:34:04;;;;;;;32.90;10.35;;;4.20;99.90;;;3.93;81.39;102423.03;5227801;28;20056;-72
2022/01/27 00:36:36;;;;;;;28.00;10.30;;;4.20;99.90;;;3.89;81.65;102408.06;5229042;28;20053;-73
2022/01/27 00:39:10;;;;;;;32.40;10.23;;;4.20;99.90;;;3.78;81.75;102405.47;5229311;28;20055;-73
2022/01/27 00:41:42;;;;;;;35.75;10.98;;;4.10;99.90;;;3.80;81.94;102393.59;5228771;28;20059;-72
2022/01/27 00:44:14;;;;;;;31.60;10.60;;;4.00;99.90;;;3.82;81.46;102378.22;5228390;28;20044;-72
2022/01/27 00:46:46;;;;;;;33.10;11.05;;;4.00;99.90;;;3.76;81.45;102385.44;5228368;28;20057;-73
2022/01/27 00:49:18;;;;;;;34.22;9.65;;;4.00;99.90;;;3.67;81.95;102384.66;5228524;28;20052;-72
2022/01/27 00:51:50;;;;;;;34.42;11.60;;;3.90;99.90;;;3.62;81.86;102380.75;5228211;28;20048;-74
2022/01/27 00:54:27;;;;;;;42.83;12.27;;;3.90;99.90;;;3.50;82.26;102381.47;5228729;28;20351;-73
2022/01/27 00:57:07;;;;;;;35.10;11.07;;;3.90;99.90;;;3.52;82.32;102385.13;5228098;28;20508;-73
2022/01/27 00:59:50;;;;;;;30.60;9.75;;;3.80;99.90;;;3.52;82.90;102373.88;5228548;28;20051;-73
2022/01/27 01:02:34;;;;;;;40.58;10.77;;;3.80;99.90;;;3.52;82.75;102394.50;5228092;28;20044;-72
2022/01/27 01:05:21;;;;;;;36.00;10.20;;;3.80;99.90;;;3.46;82.87;102376.84;5227810;28;20102;-72
2022/01/27 01:07:57;;;;;;;36.35;11.30;;;3.80;99.90;;;3.46;83.08;102382.00;5228441;28;20098;-72
2022/01/27 01:14:18;;;;;;;34.90;9.93;;;3.80;99.90;;;3.45;82.69;102377.56;5212502;28;20401;-74
2022/01/27 01:16:49;;;;;;;32.20;9.65;;;3.70;99.90;;;3.45;82.33;102369.84;5227822;28;20048;-73
2022/01/27 01:19:32;;;;;;;39.05;10.38;;;3.70;99.90;;;3.43;82.11;102368.81;5227430;28;20081;-72
2022/01/27 01:29:24;;;;;;;36.83;11.32;;;3.70;99.90;;;3.37;82.25;102359.63;5228082;28;20048;-74
2022/01/27 01:30:53;;;;;;;30.38;9.50;;;3.60;99.90;;;3.26;82.47;102353.56;5228427;28;20084;-73
2022/01/27 01:33:32;;;;;;;34.15;9.73;;;3.50;99.90;;;3.22;82.85;102343.72;5227466;28;20328;-74
2022/01/27 01:36:13;;;;;;;30.92;9.43;;;3.50;99.90;;;3.29;83.10;102332.28;5227544;28;20553;-73
2022/01/27 01:38:45;;;;;;;32.83;9.35;;;3.60;99.90;;;3.35;82.98;102328.56;5227835;28;20045;-72
2022/01/27 01:41:17;;;;;;;27.25;7.57;;;3.60;99.90;;;3.39;82.83;102315.19;5227522;28;20057;-72
2022/01/27 01:43:51;;;;;;;36.60;10.20;;;3.60;99.90;;;3.44;82.75;102316.47;5227142;28;20048;-72
2022/01/27 01:46:23;;;;;;;41.38;12.57;;;3.70;99.90;;;3.47;82.78;102314.19;5227125;28;20053;-72
2022/01/27 01:48:55;;;;;;;29.90;8.93;;;3.70;99.90;;;3.50;82.73;102308.38;5227794;28;20059;-72
2022/01/27 01:51:30;;;;;;;39.00;10.32;;;3.70;99.90;;;3.52;82.81;102311.97;5226881;28;20052;-73
2022/01/27 01:54:02;;;;;;;36.88;10.43;;;3.70;99.90;;;3.56;82.83;102314.06;5227069;28;20041;-72
2022/01/27 01:56:36;;;;;;;30.33;9.98;;;3.80;99.90;;;3.60;82.93;102310.09;5227325;28;20482;-74
2022/01/27 01:59:11;;;;;;;33.20;9.73;;;3.80;99.90;;;3.59;82.34;102313.44;5227384;28;20052;-71
2022/01/27 02:01:43;;;;;;;32.72;10.60;;;3.80;99.90;;;3.57;82.38;102313.28;5227006;28;20080;-72
2022/01/27 02:04:16;;;;;;;34.95;10.63;;;3.80;99.90;;;3.58;82.56;102306.47;5226656;28;20482;-73
2022/01/27 02:06:52;;;;;;;28.02;10.27;;;3.80;99.90;;;3.61;82.16;102301.59;5227111;28;20496;-73
2022/01/27 02:09:33;;;;;;;37.80;9.82;;;3.80;99.90;;;3.65;82.06;102295.91;5227148;28;20049;-72
2022/01/27 02:18:00;;;;;;;38.28;11.20;;;3.90;99.90;;;3.68;81.50;102298.75;5227070;28;20110;-74
2022/01/27 02:20:36;;;;;;;29.52;8.75;;;3.90;99.90;;;3.68;81.70;102302.22;5227417;28;20461;-71
2022/01/27 02:23:11;;;;;;;35.45;9.35;;;3.90;99.90;;;3.70;81.59;102298.09;5226460;28;20041;-71
2022/01/27 02:25:43;;;;;;;32.03;8.05;;;3.90;99.90;;;3.71;81.33;102299.91;5225903;28;20053;-73
2022/01/27 02:28:15;;;;;;;26.33;8.55;;;3.90;99.90;;;3.72;81.80;102300.84;5226632;28;20055;-72
2022/01/27 02:30:47;;;;;;;33.30;8.82;;;3.90;99.90;;;3.71;81.38;102299.91;5226674;28;20059;-72
2022/01/27 02:33:31;;;;;;;30.10;9.05;;;3.90;99.90;;;3.73;81.38;102300.97;5226416;28;20128;-72
2022/01/27 02:36:05;;;;;;;35.95;9.15;;;3.90;99.90;;;3.74;81.38;102296.72;5226487;28;20072;-71
2022/01/27 02:38:37;;;;;;;29.25;7.63;;;3.90;99.90;;;3.74;81.55;102294.13;5227144;28;20387;-71
2022/01/27 02:41:12;;;;;;;31.58;8.82;;;4.00;99.90;;;3.75;81.42;102290.78;5226340;28;20103;-71
2022/01/27 02:43:44;;;;;;;29.75;8.60;;;4.00;99.90;;;3.81;81.22;102291.28;5225663;28;20049;-70
2022/01/27 02:46:22;;;;;;;28.52;9.27;;;4.00;99.90;;;3.80;81.22;102289.50;5226332;28;20044;-72
2022/01/27 02:48:54;;;;;;;35.28;9.18;;;4.00;99.90;;;3.85;80.89;102290.78;5226369;28;20049;-72
2022/01/27 02:51:28;;;;;;;30.77;9.52;;;4.00;99.90;;;3.87;80.70;102281.50;5226146;28;20490;-74
2022/01/27 02:53:59;;;;;;;29.33;9.20;;;4.00;99.90;;;3.82;80.73;102277.63;5225643;28;20094;-72
2022/01/27 02:56:33;;;;;;;33.45;8.95;;;4.00;99.90;;;3.80;81.05;102279.19;5227175;28;20087;-72
2022/01/27 02:59:05;;;;;;;33.17;9.95;;;4.00;99.90;;;3.81;81.24;102275.81;5226244;28;20114;-74
2022/01/27 03:01:37;;;;;;;28.23;8.43;;;4.00;99.90;;;3.81;81.26;102266.41;5226524;28;20485;-72
2022/01/27 03:04:09;;;;;;;31.70;8.70;;;4.00;99.90;;;3.86;81.21;102248.75;5225138;28;20052;-72
2022/01/27 03:06:43;;;;;;;27.40;8.38;;;4.00;99.90;;;3.88;80.62;102247.19;5225712;28;20049;-72
2022/01/27 03:09:15;;;;;;;24.33;8.07;;;4.00;99.90;;;3.86;80.44;102235.84;5225344;28;20049;-74
2022/01/27 03:11:52;;;;;;;29.40;7.93;;;4.00;99.90;;;3.83;80.57;102243.31;5226209;28;20053;-75
2022/01/27 03:14:26;;;;;;;27.02;8.55;;;4.00;99.90;;;3.84;80.13;102234.78;5225434;28;20045;-72
2022/01/27 03:17:00;;;;;;;25.15;8.13;;;4.00;99.90;;;4.02;79.47;102232.84;5226082;28;20048;-73
2022/01/27 03:19:34;;;;;;;26.50;7.72;;;4.10;99.90;;;3.94;79.50;102229.63;5226114;28;20051;-73
2022/01/27 03:22:09;;;;;;;24.48;8.45;;;4.00;99.90;;;3.97;79.46;102221.25;5225878;28;20477;-73
2022/01/27 03:24:41;;;;;;;25.05;7.95;;;4.00;99.90;;;3.84;80.15;102216.72;5225623;28;20069;-72
2022/01/27 03:27:18;;;;;;;26.95;8.02;;;4.00;99.90;;;3.78;80.55;102223.94;5225908;28;20049;-74
2022/01/27 03:29:50;;;;;;;29.75;8.05;;;4.00;99.90;;;3.89;80.25;102227.44;5225444;28;20049;-72
2022/01/27 03:32:25;;;;;;;26.50;7.38;;;4.00;99.90;;;3.85;80.47;102230.53;5225541;28;20049;-74
2022/01/27 03:34:57;;;;;;;24.63;7.93;;;4.00;99.90;;;3.82;80.52;102231.19;5225260;28;20045;-75
2022/01/27 03:37:30;;;;;;;28.95;9.02;;;4.00;99.90;;;3.79;80.43;102225.78;5225785;28;20056;-72
2022/01/27 03:40:04;;;;;;;24.00;7.80;;;4.00;99.90;;;3.79;80.52;102215.47;5225289;28;20140;-71
2022/01/27 03:42:43;;;;;;;28.63;7.60;;;4.00;99.90;;;3.89;80.18;102215.44;5225723;28;20041;-74
2022/01/27 03:45:15;;;;;;;28.67;7.72;;;4.00;99.90;;;3.82;80.26;102210.56;5225007;28;20045;-72
2022/01/27 03:47:47;;;;;;;20.50;7.43;;;4.00;99.90;;;3.80;80.33;102204.38;5225704;28;20504;-74
2022/01/27 03:50:19;;;;;;;19.88;5.35;;;4.00;99.90;;;3.77;80.49;102192.09;5225570;28;20045;-72
2022/01/27 03:52:52;;;;;;;26.00;7.88;;;4.00;99.90;;;3.80;80.70;102194.06;5225663;28;20045;-74
2022/01/27 03:55:25;;;;;;;24.83;6.95;;;4.00;99.90;;;3.81;80.47;102195.84;5225829;28;20352;-73
2022/01/27 03:57:57;;;;;;;24.67;7.00;;;4.00;99.90;;;3.77;80.73;102204.09;5226021;28;20052;-73
2022/01/27 04:00:29;;;;;;;21.48;7.70;;;4.00;99.90;;;3.79;80.84;102208.63;5225572;28;20457;-74
2022/01/27 04:03:02;;;;;;;24.15;7.93;;;4.00;99.90;;;3.77;80.58;102193.78;5226069;28;20045;-74
2022/01/27 04:05:37;;;;;;;22.52;7.30;;;4.00;99.90;;;3.75;80.75;102185.00;5229200;28;20088;-74
2022/01/27 04:08:11;;;;;;;;;;;4.00;99.90;;;3.77;80.90;102186.94;5230252;28;20134;-73
2022/01/27 04:10:45;;;;;;;24.38;7.43;;;4.00;99.90;;;3.74;80.74;102176.38;5229583;28;19927;-73
2022/01/27 04:13:17;;;;;;;28.55;7.13;;;4.00;99.90;;;3.81;80.17;102177.78;5230234;28;20047;-73
2022/01/27 04:15:49;;;;;;;17.90;5.90;;;4.00;99.90;;;3.81;79.94;102164.91;5228621;28;20460;-73
2022/01/27 04:18:21;;;;;;;21.13;6.90;;;4.00;99.90;;;3.76;80.12;102166.19;5229464;28;20482;-71
2022/01/27 04:20:53;;;;;;;21.08;7.13;;;4.00;99.90;;;3.79;79.98;102158.72;5229509;28;20402;-74
2022/01/27 04:23:27;;;;;;;22.30;6.70;;;4.00;99.90;;;3.77;79.80;102160.25;5228860;28;20045;-73
2022/01/27 04:26:00;;;;;;;18.48;6.10;;;4.00;99.90;;;3.86;79.75;102152.38;5228995;28;20045;-72
2022/01/27 04:28:35;;;;;;;21.00;5.78;;;4.00;99.90;;;3.83;79.88;102160.75;5229334;28;20056;-72
2022/01/27 04:31:09;;;;;;;19.98;7.38;;;4.00;99.90;;;3.80;79.81;102170.84;5229015;28;20053;-72
2022/01/27 04:33:41;;;;;;;22.00;6.53;;;4.00;99.90;;;3.81;79.78;102172.63;5229826;28;20497;-72
2022/01/27 04:36:19;;;;;;;21.30;6.85;;;4.00;99.90;;;3.81;79.60;102163.22;5228619;28;20509;-71
2022/01/27 04:38:59;;;;;;;20.85;6.55;;;4.00;99.90;;;3.84;79.59;102175.44;5228936;28;20048;-72
2022/01/27 04:41:37;;;;;;;19.95;5.88;;;4.10;99.90;;;3.83;79.20;102175.34;5229050;28;20056;-71
2022/01/27 04:44:17;;;;;;;24.63;7.60;;;4.10;99.90;;;3.83;78.68;102160.75;5228570;28;20040;-73
2022/01/27 04:46:55;;;;;;;18.83;6.10;;;4.10;99.90;;;3.83;78.90;102154.69;5228443;28;20128;-72
2022/01/27 04:49:27;;;;;;;21.52;6.85;;;4.10;99.90;;;3.86;79.00;102161.03;5228994;28;20059;-73
2022/01/27 04:51:59;;;;;;;20.25;6.05;;;4.10;99.90;;;4.00;78.77;102162.16;5229580;28;20051;-73
2022/01/27 04:54:38;;;;;;;21.20;6.55;;;4.10;99.90;;;4.01;77.78;102145.91;5227871;28;20045;-72
2022/01/27 04:57:10;;;;;;;24.75;6.95;;;4.10;99.90;;;3.96;78.18;102140.34;5228575;28;20057;-71
2022/01/27 04:59:44;;;;;;;25.13;8.15;;;4.10;99.90;;;3.93;78.25;102126.31;5228772;28;20053;-72
2022/01/27 05:02:23;;;;;;;21.40;6.97;;;4.20;99.90;;;3.94;78.46;102134.19;5228444;28;20049;-73
2022/01/27 05:04:55;;;;;;;24.45;6.75;;;4.10;99.90;;;3.98;78.69;102125.03;5228081;28;20409;-73
2022/01/27 05:07:28;;;;;;;18.92;6.03;;;4.10;99.90;;;4.09;78.05;102130.25;5228379;28;20055;-74
2022/01/27 05:10:10;;;;;;;20.95;7.22;;;4.20;99.90;;;4.01;78.11;102120.09;5229025;28;20048;-74
2022/01/27 05:12:45;;;;;;;18.33;6.00;;;4.20;99.90;;;3.96;78.59;102111.06;5228108;28;20525;-72
2022/01/27 05:15:18;;;;;;;20.45;7.78;;;4.20;99.90;;;3.94;78.87;102113.53;5226995;28;20445;-72
2022/01/27 05:17:51;;;;;;;20.48;6.85;;;4.20;99.90;;;3.94;78.97;102103.22;5228299;28;20122;-72
2022/01/27 05:20:23;;;;;;;26.73;8.07;;;4.20;99.90;;;3.93;79.09;102095.34;5228633;28;20124;-74
2022/01/27 05:22:55;;;;;;;20.23;7.28;;;4.20;99.90;;;3.95;79.31;102094.69;5228137;28;20049;-74
2022/01/27 05:25:28;;;;;;;20.27;6.85;;;4.20;99.90;;;3.97;79.59;102087.97;5227770;28;20478;-72
2022/01/27 05:28:00;;;;;;;23.40;7.80;;;4.20;99.90;;;3.97;79.56;102069.91;5228057;28;20489;-73
2022/01/27 05:30:32;;;;;;;18.60;6.28;;;4.20;99.90;;;4.02;79.15;102075.44;5228301;28;20059;-73
2022/01/27 05:33:04;;;;;;;26.80;8.05;;;4.20;99.90;;;4.04;79.28;102068.72;5227870;28;20045;-72
2022/01/27 05:35:37;;;;;;;16.80;6.05;;;4.20;99.90;;;4.05;79.27;102070.56;5227527;28;20040;-73
2022/01/27 05:38:09;;;;;;;19.50;6.40;;;4.20;99.90;;;4.03;78.97;102067.81;5227887;28;20053;-72
2022/01/27 05:40:43;;;;;;;20.17;6.72;;;4.20;99.90;;;3.99;79.52;102068.38;5228166;28;20056;-72
2022/01/27 05:43:15;;;;;;;21.33;7.65;;;4.20;99.90;;;4.03;79.45;102048.88;5227774;28;20041;-72
2022/01/27 05:45:47;;;;;;;17.73;6.82;;;4.20;99.90;;;3.97;79.45;102054.44;5227427;28;20104;-72
2022/01/27 05:48:19;;;;;;;21.75;7.97;;;4.20;99.90;;;3.91;79.53;102041.06;5244027;22;20052;-79
2022/01/27 05:50:51;;;;;;;20.05;6.43;;;4.20;99.90;;;3.86;79.86;102039.78;5219472;28;20049;-78
2022/01/27 05:53:23;;;;;;;22.48;7.20;;;4.10;99.90;;;3.84;80.06;102025.81;5213822;28;20054;-78
2022/01/27 05:55:56;;;;;;;21.80;7.00;;;4.10;99.90;;;3.84;80.37;102018.09;5209040;28;20056;-80
2022/01/27 05:58:29;;;;;;;17.42;6.43;;;4.10;99.90;;;3.86;80.14;102016.56;5209440;28;20424;-77
2022/01/27 06:01:01;;;;;;;21.70;7.00;;;4.20;99.90;;;3.90;80.27;102013.44;5208816;28;20424;-79
2022/01/27 06:03:33;;;;;;;20.58;6.60;;;4.10;99.90;;;3.94;80.53;102006.84;5208716;28;20049;-78
2022/01/27 06:06:05;;;;;;;19.65;6.32;;;4.10;99.90;;;3.90;80.58;102008.28;5208881;28;20440;-79
2022/01/27 06:08:37;;;;;;;17.90;6.53;;;4.20;99.90;;;3.92;80.95;102016.16;5209142;28;20051;-80
2022/01/27 06:11:10;;;;;;;23.67;7.22;;;4.20;99.90;;;3.96;80.70;102007.88;5208668;28;20057;-78
2022/01/27 06:13:43;;;;;;;19.83;7.50;;;4.20;99.90;;;3.96;80.76;102007.88;5208029;28;20056;-79
2022/01/27 06:16:15;;;;;;;24.40;8.60;;;4.20;99.90;;;3.98;80.65;102002.06;5208455;28;20089;-79
2022/01/27 06:18:47;;;;;;;23.60;7.55;;;4.20;99.90;;;3.97;81.01;101994.19;5208142;28;20056;-79
2022/01/27 06:21:19;;;;;;;18.33;6.50;;;4.20;99.90;;;3.92;81.43;101991.25;5209730;28;20136;-79
2022/01/27 06:23:51;;;;;;;19.20;6.55;;;4.20;99.90;;;4.05;81.23;101993.13;5207982;28;20045;-80
2022/01/27 06:26:25;;;;;;;22.83;7.68;;;4.20;99.90;;;4.06;81.32;101993.25;5207451;28;20056;-79
2022/01/27 06:28:57;;;;;;;20.15;7.53;;;4.30;99.90;;;4.09;81.35;101980.56;5209195;28;20428;-79
2022/01/27 06:31:29;;;;;;;24.23;8.57;;;4.30;99.90;;;4.13;81.24;101978.25;5209603;28;20053;-78
2022/01/27 06:34:01;;;;;;;19.77;7.40;;;4.30;99.90;;;4.15;81.61;101976.69;5207779;28;20052;-78
2022/01/27 06:36:33;;;;;;;22.33;7.80;;;4.40;99.90;;;4.19;81.12;101971.00;5208041;28;20049;-78
2022/01/27 06:39:05;;;;;;;21.63;7.57;;;4.40;99.90;;;4.20;81.68;101962.47;5208446;28;20057;-79
2022/01/27 06:41:38;;;;;;;26.33;10.43;;;4.40;99.90;;;4.21;81.64;101953.94;5211391;28;20062;-78
2022/01/27 06:44:10;;;;;;;20.80;7.63;;;4.40;99.90;;;4.23;81.40;101954.97;5208387;28;20042;-79
2022/01/27 06:46:42;;;;;;;19.80;7.63;;;4.40;99.90;;;4.23;81.30;101947.22;5208225;28;20041;-79
2022/01/27 06:49:16;;;;;;;21.58;7.93;;;4.40;99.90;;;4.15;81.87;101958.63;5209062;28;20060;-79
2022/01/27 06:51:49;;;;;;;18.70;6.40;;;4.40;99.90;;;4.17;81.85;101957.06;5211411;28;20565;-79
2022/01/27 06:54:21;;;;;;;23.15;8.43;;;4.50;99.90;;;4.21;82.03;101948.78;5210010;28;20041;-79
2022/01/27 06:56:55;;;;;;;23.75;8.63;;;4.50;99.90;;;4.23;82.08;101939.47;5208529;28;20049;-79
2022/01/27 06:59:27;;;;;;;25.77;8.13;;;4.50;99.90;;;4.27;82.50;101944.09;5211796;28;20148;-78
2022/01/27 07:01:59;;;;;;;28.38;8.85;;;4.50;99.90;;;4.29;82.80;101932.22;5214151;28;20121;-78
2022/01/27 07:04:31;;;;;;;19.65;6.90;;;4.50;99.90;;;4.34;82.44;101930.91;5213347;28;20053;-80
2022/01/27 07:07:03;;;;;;;27.42;9.45;;;4.50;99.90;;;4.30;82.36;101914.28;5213446;28;20049;-79
2022/01/27 07:09:35;;;;;;;24.40;10.05;;;4.60;99.90;;;4.39;82.66;101929.56;5213936;28;20056;-79
2022/01/27 07:12:10;;;;;;;20.35;8.50;;;4.60;99.90;;;4.40;82.50;101931.38;5213289;28;20050;-79
2022/01/27 07:14:42;;;;;;;24.60;8.50;;;4.60;99.90;;;4.41;82.71;101922.84;5213388;28;20045;-79
2022/01/27 07:17:17;;;;;;;26.38;9.65;;;4.60;99.90;;;4.38;82.73;101912.28;5212812;28;20049;-80
2022/01/27 07:19:50;;;;;;;22.98;9.20;;;4.70;99.90;;;4.43;82.92;101925.53;5213202;28;20049;-80
2022/01/27 07:22:22;;;;;;;23.13;7.90;;;4.70;99.90;;;4.44;82.58;101923.09;5213343;28;20572;-79
2022/01/27 07:24:53;;;;;;;23.73;9.60;;;4.70;99.90;;;4.49;83.11;101920.84;5213750;28;20045;-82
2022/01/27 07:27:27;;;;;;;22.10;8.50;;;4.70;99.90;;;4.56;82.95;101915.34;5214144;28;20049;-80
2022/01/27 07:30:00;;;;;;;27.45;10.52;;;4.70;99.90;;;4.58;82.72;101921.56;5214524;28;20086;-80
2022/01/27 07:32:32;;;;;;;23.48;8.82;;;4.80;99.90;;;4.60;82.94;101926.06;5213311;28;20056;-79
2022/01/27 07:35:05;;;;;;;23.08;6.88;;;4.80;99.90;;;4.62;82.80;101929.66;5214041;28;20049;-80
2022/01/27 07:37:40;;;;;;;22.67;8.70;;;4.80;99.90;;;4.64;82.73;101922.03;5212158;28;20049;-79
2022/01/27 07:40:12;;;;;;;;;;;4.80;99.90;;;4.70;83.03;101916.44;5213514;28;20054;-80
2022/01/27 07:42:47;;;;;;;19.17;6.82;;;4.80;99.90;;;4.69;83.08;101917.19;5213155;28;20314;-80
2022/01/27 07:45:19;;;;;;;21.67;7.60;;;4.80;99.90;;;4.68;83.16;101918.88;5213096;28;20103;-81
2022/01/27 07:47:51;;;;;;;21.50;7.55;;;4.80;99.90;;;4.63;83.38;101913.41;5211166;28;20064;-80
2022/01/27 07:50:28;;;;;;;21.92;8.40;;;4.90;99.90;;;4.72;83.54;101925.19;5211662;28;20317;-78
2022/01/27 07:53:01;;;;;;;22.40;8.82;;;4.90;99.90;;;4.71;83.37;101913.06;5214338;28;20055;-80
2022/01/27 07:55:32;;;;;;;24.05;7.78;;;4.90;99.90;;;4.72;83.47;101912.28;5215225;28;20049;-80
2022/01/27 07:58:06;;;;;;;21.38;8.10;;;4.90;99.90;;;4.72;83.54;101905.44;5214286;28;20064;-79
2022/01/27 08:00:39;;;;;;;19.83;7.13;;;4.90;99.90;;;4.79;83.70;101901.63;5216377;28;20049;-79
2022/01/27 08:03:10;;;;;;;19.80;7.57;;;5.00;99.90;;;4.86;83.88;101903.88;5214673;28;20056;-80
2022/01/27 08:05:42;;;;;;;21.25;7.22;;;5.00;99.90;;;4.93;83.78;101906.13;5213382;28;20046;-81
2022/01/27 08:08:14;;;;;;;22.50;7.40;;;5.00;99.90;;;4.94;84.03;101905.34;5211522;28;20060;-83
2022/01/27 08:10:48;;;;;;;22.10;7.80;;;5.10;99.90;;;4.96;83.96;101895.16;5212796;28;20063;-82
2022/01/27 08:13:21;;;;;;;22.25;8.23;;;5.20;99.90;;;4.95;84.57;101898.50;5212486;28;20686;-82
2022/01/27 08:15:54;;;;;;;22.95;7.72;;;5.20;99.90;;;5.00;84.25;101895.47;5213506;28;20055;-83
2022/01/27 08:18:26;;;;;;;23.80;11.25;;;5.20;99.90;;;5.05;84.19;101896.72;5213325;28;20140;-83
2022/01/27 08:20:58;;;;;;;32.17;11.65;;;5.20;99.90;;;5.09;84.08;101887.53;5213021;28;20396;-83
2022/01/27 08:23:30;;;;;;;25.42;9.05;;;5.30;99.90;;;5.13;83.91;101885.25;5215476;28;20041;-83
2022/01/27 08:26:07;;;;;;;20.95;7.63;;;5.30;99.90;;;5.18;84.34;101886.50;5215240;28;20075;-85
2022/01/27 08:28:45;;;;;;;14.40;5.22;;;5.30;99.90;;;5.34;84.17;101885.91;5214463;28;20397;-85
2022/01/27 08:31:17;;;;;;;16.25;6.05;;;5.40;99.90;;;5.44;85.06;101878.06;5212831;28;20128;-83
2022/01/27 08:33:49;;;;;;;18.02;6.18;;;5.50;99.90;;;5.56;84.96;101875.47;5195288;28;20080;-81
2022/01/27 08:36:22;;;;;;;19.50;6.57;;;5.60;99.90;;;5.68;85.02;101878.94;5217094;28;20076;-85
2022/01/27 08:38:55;;;;;;;15.02;7.05;;;5.70;99.90;;;5.73;84.70;101882.72;5234708;28;20056;-85
2022/01/27 08:41:27;;;;;;;20.45;6.20;;;5.70;99.90;;;5.76;84.98;101881.16;5234013;28;20140;-81
2022/01/27 08:44:00;;;;;;;16.48;5.65;;;5.80;99.90;;;5.77;84.70;101890.72;5234092;28;20055;-82
2022/01/27 08:46:32;;;;;;;15.55;5.47;;;5.80;99.90;;;5.82;84.61;101897.13;5234004;28;20041;-81
2022/01/27 08:49:05;;;;;;;16.63;6.40;;;5.90;99.90;;;5.83;84.70;101904.09;5235713;28;20071;-82
2022/01/27 08:51:38;;;;;;;13.93;5.30;;;5.90;99.90;;;5.84;84.57;101901.63;5239217;28;20427;-80
2022/01/27 08:54:10;;;;;;;16.33;6.53;;;5.90;99.90;;;5.87;84.75;101903.53;5235965;28;20048;-82
2022/01/27 08:56:43;;;;;;;15.88;6.20;;;6.00;99.90;;;5.86;84.93;101899.13;5235621;28;20049;-82
2022/01/27 08:59:17;;;;;;;16.27;6.47;;;6.00;99.90;;;5.89;84.51;101900.25;5235454;28;20051;-81
2022/01/27 09:01:49;;;;;;;18.35;6.47;;;6.00;99.90;;;5.93;84.91;101896.22;5235996;28;20061;-82
2022/01/27 09:04:21;;;;;;;15.50;6.10;;;6.00;99.90;;;5.94;84.68;101896.34;5235600;28;20055;-81
2022/01/27 09:06:53;;;;;;;26.92;6.57;;;6.00;99.90;;;5.95;85.02;101885.19;5235199;28;20071;-81
2022/01/27 09:09:25;;;;;;;16.55;6.93;;;6.10;99.90;;;6.00;85.28;101888.13;5235726;28;20044;-81
2022/01/27 09:11:58;;;;;;;20.30;6.55;;;6.10;99.90;;;5.97;85.07;101867.19;5235419;28;20063;-82
2022/01/27 09:14:32;;;;;;;17.70;6.55;;;6.10;99.90;;;6.00;85.17;101867.41;5234861;28;20509;-80
2022/01/27 09:17:04;;;;;;;18.70;7.28;;;6.10;99.90;;;6.02;85.51;101863.22;5234722;28;20056;-81
2022/01/27 09:19:40;;;;;;;18.15;6.53;;;6.10;99.90;;;6.04;85.99;101865.91;5235322;28;20411;-82
2022/01/27 09:22:16;;;;;;;13.23;5.55;;;6.10;99.90;;;6.06;85.84;101867.81;5236401;28;20107;-81
2022/01/27 09:24:54;;;;;;;20.83;6.75;;;6.10;99.90;;;6.11;85.82;101874.22;5240385;28;20049;-81
2022/01/27 09:27:27;;;;;;;18.60;6.93;;;6.20;99.90;;;6.15;85.65;101878.84;5239552;28;20064;-82
2022/01/27 09:30:01;;;;;;;20.55;7.10;;;6.20;99.90;;;6.19;86.41;101885.09;5241340;28;20419;-81
2022/01/27 09:32:33;;;;;;;20.27;6.88;;;6.30;99.90;;;6.23;86.30;101893.19;5240065;28;20045;-81
2022/01/27 09:35:05;;;;;;;19.00;7.07;;;6.30;99.90;;;6.33;87.26;101894.75;5240452;28;20135;-81
2022/01/27 09:37:38;;;;;;;17.38;6.72;;;6.30;99.90;;;6.36;88.58;101883.69;5240298;28;20045;-81
2022/01/27 09:40:13;;;;;;;21.33;7.50;;;6.40;99.90;;;6.49;88.92;101882.03;5238021;28;20052;-82
2022/01/27 09:42:50;;;;;;;23.70;7.82;;;6.50;99.90;;;6.48;89.54;101889.72;5235053;28;20507;-80
2022/01/27 09:45:26;;;;;;;19.20;6.18;;;6.60;99.90;;;6.47;89.67;101894.00;5235557;28;20060;-80
2022/01/27 09:48:01;;;;;;;20.15;6.53;;;6.60;99.90;;;6.49;89.37;101882.03;5235145;28;20485;-81
2022/01/27 09:50:47;;;;;;;18.13;6.78;;;6.60;99.90;;;6.50;89.64;101872.59;5235723;28;20045;-81
2022/01/27 09:53:19;;;;;;;19.77;6.55;;;6.60;99.90;;;6.50;90.39;101877.75;5234371;28;20057;-82
2022/01/27 09:55:51;;;;;;;22.02;7.90;;;6.60;99.90;;;6.52;90.87;101876.19;5245009;28;20109;-80
2022/01/27 09:58:23;;;;;;;22.58;6.95;;;6.60;99.90;;;6.56;91.78;101880.78;5246565;28;20045;-80
2022/01/27 10:00:57;;;;;;;14.85;6.30;;;6.60;99.90;;;6.53;92.11;101881.47;5241208;28;20041;-82
2022/01/27 10:03:30;;;;;;;15.68;5.95;;;6.60;99.90;;;6.49;92.55;101875.97;5233039;28;20068;-81
2022/01/27 10:06:13;;;;;;;18.92;6.20;;;6.60;99.90;;;6.51;92.42;101874.38;5233833;28;20055;-80
2022/01/27 10:08:45;;;;;;;20.08;6.63;;;6.60;99.90;;;6.50;93.46;101882.94;5234849;28;20511;-82
2022/01/27 10:11:20;;;;;;;16.38;6.30;;;6.60;99.90;;;6.49;93.91;101870.78;5235875;28;20136;-83
2022/01/27 10:13:52;;;;;;;23.15;7.63;;;6.60;99.90;;;6.50;94.31;101882.94;5235333;28;20059;-84
2022/01/27 10:16:35;;;;;;;17.20;6.47;;;6.60;99.90;;;6.46;94.88;101870.59;5236314;28;20055;-83
2022/01/27 10:19:09;;;;;;;16.60;6.13;;;6.60;99.90;;;6.46;95.12;101865.41;5220278;28;20052;-84
2022/01/27 10:21:41;;;;;;;13.38;5.70;;;6.60;99.90;;;6.49;95.06;101870.78;5234375;28;20498;-81
2022/01/27 10:24:24;;;;;;;14.63;4.85;;;6.60;99.90;;;6.46;96.00;101862.81;5234847;28;20059;-81
2022/01/27 10:27:23;;;;;;;13.60;5.13;;;6.60;99.90;;;6.44;96.55;101856.63;5235018;28;20047;-82
2022/01/27 10:32:46;;;;;;;13.90;5.50;;;6.60;99.90;;;6.50;97.05;101862.22;5227491;28;20045;-82
2022/01/27 10:35:22;;;;;;;13.50;5.13;;;6.60;99.90;;;6.49;97.61;101850.06;5238087;28;20518;-83
2022/01/27 10:38:02;;;;;;;13.57;4.65;;;6.60;99.90;;;6.49;98.21;101858.72;5239639;28;20454;-83
2022/01/27 10:40:38;;;;;;;11.63;5.20;;;6.60;99.90;;;6.47;98.91;101852.56;5234254;28;20049;-82
2022/01/27 10:43:13;;;;;;;10.98;4.55;;;6.60;99.90;;;6.52;98.53;101856.38;5233229;28;20102;-81
2022/01/27 10:46:09;;;;;;;;;;;6.60;99.90;;;6.51;98.67;101858.81;5233884;28;20045;-82
2022/01/27 10:48:46;;;;;;;13.18;4.72;;;6.60;99.90;;;6.51;98.96;101854.53;5233316;28;19921;-82
2022/01/27 10:51:24;;;;;;;14.65;4.97;;;6.60;99.90;;;6.50;99.74;101852.75;5233684;28;20052;-82
2022/01/27 10:54:04;;;;;;;11.40;4.50;;;6.60;99.90;;;6.50;99.86;101851.84;5234597;28;20080;-83
2022/01/27 10:56:39;;;;;;;10.70;4.57;;;6.60;99.90;;;6.50;100.00;101851.84;5234176;28;20044;-82
2022/01/27 10:59:15;;;;;;;12.13;4.75;;;6.60;99.90;;;6.49;100.00;101837.13;5234251;28;20049;-82
2022/01/27 11:01:50;;;;;;;12.23;4.65;;;6.60;99.90;;;6.53;100.00;101839.13;5233928;28;20077;-82
2022/01/27 11:04:35;;;;;;;11.05;4.47;;;6.60;99.90;;;6.55;100.00;101831.44;5234126;28;20515;-82
2022/01/27 11:07:10;;;;;;;12.85;4.32;;;6.60;99.90;;;6.54;100.00;101827.97;5234203;28;20479;-83
2022/01/27 11:09:44;;;;;;;10.20;4.03;;;6.60;99.90;;;6.57;100.00;101822.97;5235376;28;20052;-83